Reduzum, Netherlands
Current Conditions -  °F | °C
As of 9:55 AM on Sunday 23 Nov 2014 (Local Time) from EHLW Reporting Station
Haze Haze  
Wind Chill: 44°   Ceiling: 1900
Heat Index: 48°   Visibility: 4mi
Dew Point: 46°   Wind: 9mph
Humidity: 93%   Direction: 170°S
Pressure: 30"   Gusts: NA
Location:  53.12°N, 5.79°E
Report Text: EHLW 230855Z AUTO 17008KT 6000 BR BKN019 BKN025 09/08 Q1016 WHT
Loading
Personal Weather Stations






























Interactive Weather Map New forecast layout! Learn more

10-Day Weather Forecast

Advertisements
Track Severe Weather on mobile